Terminal Aerodrome Forecast
Issued by NWS Grand Forks, ND

Home | Current Version | Previous Version | Graphics & Text | Print | Product List | Glossary On
Versions: 1 2 3 4 5 6 7 8 9 10 11 12 13 14
000
FTUS43 KFGF 200520
TAFFAR
TAF
KFAR 200520Z 2006/2106 17010KT P6SM SKC
     FM200700 16010KT P6SM FEW250 WS020/22035KT
     FM201000 16011KT P6SM FEW250
     FM201500 16018G27KT P6SM FEW250
     FM202100 17023G35KT P6SM FEW250
     FM210000 17015G25KT P6SM SCT250=

USA.gov is the U.S. government's official web portal to all federal, state and local government web resources and services.